Time;durP1;ratioP1;P1;durP2;ratioP2;P2;SDS_P1;SDS_P2;PMS_P1;PMS_P2;Temp;Humidity;BMP_temperature;BMP_pressure;BME280_temperature;BME280_humidity;BME280_pressure;Samples;Min_cycle;Max_cycle;Signal;HPM_P1;HPM_P2
2022/09/25 00:00:45;;;;;;;;;;;;;;;70.08;0.13;100943.16;5114152;28;19920;-67
2022/09/25 00:03:12;;;;;;;;;;;;;;;71.63;0.00;100954.34;5095812;28;19966;-66
2022/09/25 00:05:40;;;;;;;;;;;;;;;71.19;0.00;100957.44;5114136;28;19966;-66
2022/09/25 00:08:06;;;;;;;;;;;;;;;73.88;0.00;100956.38;5113888;28;19916;-68
2022/09/25 00:10:33;;;;;;;;;;;;;;;74.44;0.00;100955.19;5095771;28;20361;-65
2022/09/25 00:12:59;;;;;;;;;;;;;;;74.95;0.00;100954.56;5114129;28;19916;-66
2022/09/25 00:15:25;;;;;;;;;;;;;;;74.25;0.00;100945.09;5113982;28;20381;-66
2022/09/25 00:17:52;;;;;;;;;;;;;;;72.20;0.00;100950.06;5114209;28;19938;-66
2022/09/25 00:20:28;;;;;;;;;;;;;;;72.42;0.00;100959.66;5113983;28;19981;-65
2022/09/25 00:22:55;;;;;;;;;;;;;;;73.97;0.00;100957.28;5113773;28;19924;-67
2022/09/25 00:25:21;;;;;;;;;;;;;;;70.57;0.00;100948.66;5113879;28;19945;-66
2022/09/25 00:27:49;;;;;;;;;;;;;;;71.79;0.00;100946.63;5113847;28;19924;-66
2022/09/25 00:30:15;;;;;;;;;;;;;;;72.65;0.00;100949.78;5113612;28;19919;-66
2022/09/25 00:32:41;;;;;;;;;;;;;;;73.32;0.00;100958.88;5113692;28;19916;-66
2022/09/25 00:35:08;;;;;;;;;;;;;;;70.14;0.17;100946.34;5113632;28;19916;-65
2022/09/25 00:37:35;;;;;;;;;;;;;;;70.81;0.14;100945.75;5113620;28;19924;-66
2022/09/25 00:40:02;;;;;;;;;;;;;;;68.25;0.44;100936.41;5113578;28;20234;-68
2022/09/25 00:42:29;;;;;;;;;;;;;;;68.70;0.84;100937.56;5113678;28;20271;-66
2022/09/25 00:44:55;;;;;;;;;;;;;;;70.51;0.00;100938.72;5113659;28;19916;-66
2022/09/25 00:47:28;;;;;;;;;;;;;;;71.06;0.00;100946.56;5113610;28;20267;-67
2022/09/25 00:50:00;;;;;;;;;;;;;;;67.81;1.05;100934.31;5095676;28;19954;-65
2022/09/25 00:52:27;;;;;;;;;;;;;;;68.24;1.07;100940.03;5116525;28;19928;-66
2022/09/25 00:54:55;;;;;;;;;;;;;;;68.56;0.85;100926.59;5117853;28;19922;-67
2022/09/25 00:57:26;;;;;;;;;;;;;;;66.88;1.55;100930.47;5117612;28;20370;-66
2022/09/25 00:59:56;;;;;;;;;;;;;;;67.33;1.27;100946.13;5117934;28;20267;-67
2022/09/25 01:02:27;;;;;;;;;;;;;;;65.91;1.40;100942.44;5117120;28;19965;-65
2022/09/25 01:04:56;;;;;;;;;;;;;;;63.27;2.98;100941.81;5117563;28;20409;-66
2022/09/25 01:07:23;;;;;;;;;;;;;;;62.77;3.29;100954.63;5117455;28;19958;-66
2022/09/25 01:09:49;;;;;;;;;;;;;;;61.80;3.28;100957.31;5117841;28;20018;-66
2022/09/25 01:12:15;;;;;;;;;;;;;;;61.30;4.08;100960.16;5117267;28;19984;-65
2022/09/25 01:14:42;;;;;;;;;;;;;;;61.25;4.42;100955.38;5117484;28;19948;-65
2022/09/25 01:17:25;;;;;;;;;;;;;;;61.06;3.85;100955.38;5117241;28;19954;-65
2022/09/25 01:20:02;;;;;;;;;;;;;;;60.68;5.00;100962.72;5117238;28;19927;-66
2022/09/25 01:22:35;;;;;;;;;;;;;;;60.45;5.22;100954.31;5117110;28;19920;-65
2022/09/25 01:25:17;;;;;;;;;;;;;;;60.08;4.54;100968.22;5117271;28;20282;-65
2022/09/25 01:27:49;;;;;;;;;;;;;;;59.73;5.50;100968.31;5117088;28;19916;-65
2022/09/25 01:30:17;;;;;;;;;;;;;;;59.59;5.44;100975.97;5116974;28;19927;-65
2022/09/25 01:33:02;;;;;;;;;;;;;;;59.27;5.10;100968.94;5116590;28;19964;-66
2022/09/25 01:35:28;;;;;;;;;;;;;;;58.99;5.46;100972.38;5117538;28;19919;-65
2022/09/25 01:38:04;;;;;;;;;;;;;;;58.77;5.55;100979.22;5116781;28;20031;-65
2022/09/25 01:40:33;;;;;;;;;;;;;;;58.38;6.27;100990.50;5116678;28;19920;-65
2022/09/25 01:43:15;;;;;;;;;;;;;;;58.20;5.79;100974.22;5116699;28;19974;-65
2022/09/25 01:45:48;;;;;;;;;;;;;;;57.77;5.79;100973.31;5116687;28;19926;-65
2022/09/25 01:48:15;;;;;;;;;;;;;;;57.79;6.67;100973.50;5116477;28;19920;-64
2022/09/25 01:50:55;;;;;;;;;;;;;;;57.38;6.70;100978.53;5116468;28;19960;-64
2022/09/25 01:53:24;;;;;;;;;;;;;;;57.05;6.57;100979.78;5098535;28;19919;-65
2022/09/25 01:55:54;;;;;;;;;;;;;;;56.39;6.75;100986.63;5116323;28;19920;-66
2022/09/25 01:58:38;;;;;;;;;;;;;;;56.54;6.20;100983.72;5116447;28;19927;-65
2022/09/25 02:01:08;;;;;;;;;;;;;;;56.49;6.28;100979.59;5116245;28;19972;-65
2022/09/25 02:03:37;;;;;;;;;;;;;;;56.36;6.96;100992.25;5110855;28;19964;-66
2022/09/25 02:06:05;;;;;;;;;;;;;;;55.93;7.26;100995.28;5096202;28;20282;-65
2022/09/25 02:08:38;;;;;;;;;;;;;;;56.46;7.25;100994.59;5095862;28;20298;-66
2022/09/25 02:11:05;;;;;;;;;;;;;;;56.18;7.87;100998.44;5095477;28;20016;-64
2022/09/25 02:13:36;;;;;;;;;;;;;;;55.77;8.02;100995.22;5095694;28;20362;-65
2022/09/25 02:16:06;;;;;;;;;;;;;;;56.18;7.64;100993.38;5095602;28;20279;-66
2022/09/25 02:21:17;;;;;;;;;;;;;;;56.38;7.35;100993.81;5095439;28;19924;-66
2022/09/25 02:23:49;;;;;;;;;;;;;;;56.37;7.21;101001.78;5095948;28;19945;-66
2022/09/25 02:26:32;;;;;;;;;;;;;;;56.14;8.27;100993.00;5094583;28;20527;-65
2022/09/25 02:28:59;;;;;;;;;;;;;;;55.66;8.14;100998.47;5094460;28;20371;-66
2022/09/25 02:31:34;;;;;;;;;;;;;;;55.77;8.53;101003.97;5095449;28;19955;-66
2022/09/25 02:34:02;;;;;;;;;;;;;;;56.03;8.32;100996.28;5076874;28;19927;-65
2022/09/25 02:36:29;;;;;;;;;;;;;;;55.72;7.99;101001.22;5095385;28;19916;-66
2022/09/25 02:38:55;;;;;;;;;;;;;;;55.57;8.35;101001.16;5095129;28;19920;-66
2022/09/25 02:41:40;;;;;;;;;;;;;;;55.68;8.15;101016.19;5094061;28;19991;-66
2022/09/25 02:44:12;;;;;;;;;;;;;;;55.80;8.19;101015.81;5095209;28;19935;-66
2022/09/25 02:46:48;;;;;;;;;;;;;;;55.85;8.44;101017.81;5076858;28;19920;-65
2022/09/25 02:49:14;;;;;;;;;;;;;;;55.89;8.45;101019.00;5093995;28;19927;-66
2022/09/25 02:51:45;;;;;;;;;;;;;;;55.90;7.86;101023.50;5094984;28;19922;-65
2022/09/25 02:54:19;;;;;;;;;;;;;;;55.84;8.40;101022.06;5094895;28;20014;-65
2022/09/25 02:57:06;;;;;;;;;;;;;;;55.64;7.76;101024.53;5094832;28;19970;-67
2022/09/25 02:59:35;;;;;;;;;;;;;;;55.48;8.66;101028.69;5095043;28;19927;-66
2022/09/25 03:02:02;;;;;;;;;;;;;;;55.44;8.02;101028.28;5098017;28;20290;-65
2022/09/25 03:04:31;;;;;;;;;;;;;;;55.47;8.09;101030.06;5115173;28;19989;-65
2022/09/25 03:06:58;;;;;;;;;;;;;;;55.47;8.65;101035.88;5115073;28;19916;-65
2022/09/25 03:09:25;;;;;;;;;;;;;;;55.35;8.75;101040.50;5115084;28;19926;-65
2022/09/25 03:11:51;;;;;;;;;;;;;;;55.33;9.01;101035.25;5115067;28;19922;-66
2022/09/25 03:14:18;;;;;;;;;;;;;;;55.37;8.11;101031.97;5114254;28;19930;-65
2022/09/25 03:16:50;;;;;;;;;;;;;;;55.22;8.67;101034.75;5114910;28;20423;-66
2022/09/25 03:19:18;;;;;;;;;;;;;;;55.03;8.67;101044.53;5114681;28;20370;-66
2022/09/25 03:21:45;;;;;;;;;;;;;;;54.92;8.32;101049.84;5114645;28;19923;-64
2022/09/25 03:24:11;;;;;;;;;;;;;;;54.85;8.61;101049.22;5096679;28;19923;-64
2022/09/25 03:26:39;;;;;;;;;;;;;;;55.01;8.71;101052.28;5114516;28;20350;-65
2022/09/25 03:29:05;;;;;;;;;;;;;;;54.98;8.84;101042.56;5114912;28;19920;-65
2022/09/25 03:31:32;;;;;;;;;;;;;;;55.01;8.74;101053.06;5114490;28;19955;-65
2022/09/25 03:33:59;;;;;;;;;;;;;;;54.91;8.52;101054.91;5114359;28;20333;-64
2022/09/25 03:36:26;;;;;;;;;;;;;;;54.86;8.72;101058.75;5114459;28;19955;-65
2022/09/25 03:38:57;;;;;;;;;;;;;;;54.77;8.76;101060.06;5114529;28;19919;-67
2022/09/25 03:41:25;;;;;;;;;;;;;;;54.72;9.48;101063.09;5114505;28;19942;-65
2022/09/25 03:43:52;;;;;;;;;;;;;;;54.80;9.23;101063.94;5096276;28;19912;-65
2022/09/25 03:46:20;;;;;;;;;;;;;;;54.84;8.62;101067.28;5113671;28;20366;-65
2022/09/25 03:48:47;;;;;;;;;;;;;;;54.87;8.70;101069.06;5114281;28;19919;-66
2022/09/25 03:51:13;;;;;;;;;;;;;;;54.90;8.55;101070.81;5114041;28;20400;-66
2022/09/25 03:53:40;;;;;;;;;;;;;;;54.82;8.74;101069.97;5114421;28;19916;-66
2022/09/25 03:56:07;;;;;;;;;;;;;;;54.79;9.06;101076.97;5114060;28;19920;-65
2022/09/25 03:58:34;;;;;;;;;;;;;;;54.69;8.92;101076.66;5114289;28;19919;-67
2022/09/25 04:01:01;;;;;;;;;;;;;;;54.63;8.77;101069.41;5114101;28;20359;-67
2022/09/25 04:03:28;;;;;;;;;;;;;;;54.56;9.27;101088.34;5113894;28;20227;-66
2022/09/25 04:05:55;;;;;;;;;;;;;;;54.00;9.13;101084.59;5114332;28;19923;-65
2022/09/25 04:08:25;;;;;;;;;;;;;;;53.14;10.61;101097.63;5095733;28;19920;-66
2022/09/25 04:10:55;;;;;;;;;;;;;;;52.51;10.41;101092.63;5096306;28;19919;-66
2022/09/25 04:13:21;;;;;;;;;;;;;;;53.10;9.78;101085.56;5113849;28;20010;-66
2022/09/25 04:15:48;;;;;;;;;;;;;;;53.97;9.75;101091.53;5113770;28;19967;-65
2022/09/25 04:18:14;;;;;;;;;;;;;;;54.19;9.57;101098.97;5091978;28;19973;-65
2022/09/25 04:20:41;;;;;;;;;;;;;;;54.07;8.92;101094.78;5093367;28;19927;-66
2022/09/25 04:23:07;;;;;;;;;;;;;;;54.44;9.23;101098.72;5093453;28;20374;-66
2022/09/25 04:25:35;;;;;;;;;;;;;;;53.53;8.96;101093.25;5092395;28;20020;-66
2022/09/25 04:28:03;;;;;;;;;;;;;;;53.96;9.77;101095.00;5093276;28;20370;-66
2022/09/25 04:30:29;;;;;;;;;;;;;;;53.55;8.63;101093.47;5091995;28;19921;-67
2022/09/25 04:35:41;;;;;;;;;;;;;;;52.96;7.71;101092.66;5093352;28;19950;-65
2022/09/25 04:38:08;;;;;;;;;;;;;;;53.21;7.39;101090.41;5093305;28;19924;-66
2022/09/25 04:40:35;;;;;;;;;;;;;;;53.49;7.77;101094.91;5093234;28;19920;-65
2022/09/25 04:43:02;;;;;;;;;;;;;;;53.45;7.25;101097.38;5093148;28;20290;-66
2022/09/25 04:45:29;;;;;;;;;;;;;;;53.19;7.15;101090.19;5093088;28;19924;-65
2022/09/25 04:47:57;;;;;;;;;;;;;;;53.39;7.12;101094.56;5093327;28;19954;-65
2022/09/25 04:50:24;;;;;;;;;;;;;;;53.63;7.32;101102.28;5093144;28;20386;-66
2022/09/25 04:52:51;;;;;;;;;;;;;;;53.49;7.47;101092.78;5093209;28;19919;-68
2022/09/25 04:55:18;;;;;;;;;;;;;;;53.43;6.95;101095.81;5093051;28;19931;-66
2022/09/25 04:57:44;;;;;;;;;;;;;;;53.36;6.73;101096.47;5093066;28;19916;-66
2022/09/25 05:00:14;;;;;;;;;;;;;;;53.23;7.36;101092.75;5091431;28;20370;-65
2022/09/25 05:02:40;;;;;;;;;;;;;;;53.14;7.38;101097.63;5092710;28;20302;-65
2022/09/25 05:05:07;;;;;;;;;;;;;;;53.24;7.72;101100.13;5093032;28;20027;-65
2022/09/25 05:07:34;;;;;;;;;;;;;;;53.20;7.02;101100.47;5092955;28;20424;-65
2022/09/25 05:10:00;;;;;;;;;;;;;;;53.15;6.75;101104.25;5092628;28;20416;-67
2022/09/25 05:12:26;;;;;;;;;;;;;;;53.00;7.01;101098.16;5092657;28;19916;-66
2022/09/25 05:14:53;;;;;;;;;;;;;;;53.12;6.72;101093.72;5084765;28;20019;-65
2022/09/25 05:17:19;;;;;;;;;;;;;;;52.98;6.85;101100.84;5072687;28;19995;-67
2022/09/25 05:19:45;;;;;;;;;;;;;;;52.89;7.39;101104.16;5071268;28;19920;-64
2022/09/25 05:22:11;;;;;;;;;;;;;;;52.84;7.26;101102.94;5072559;28;19962;-66
2022/09/25 05:24:38;;;;;;;;;;;;;;;52.75;7.17;101107.00;5071361;28;19920;-65
2022/09/25 05:27:04;;;;;;;;;;;;;;;52.72;7.31;101099.41;5072447;28;19920;-65
2022/09/25 05:29:30;;;;;;;;;;;;;;;52.77;7.34;101097.75;5072623;28;19927;-66
2022/09/25 05:31:57;;;;;;;;;;;;;;;52.76;7.86;101102.78;5077953;28;20425;-65
2022/09/25 05:34:23;;;;;;;;;;;;;;;52.73;7.70;101103.88;5091588;28;20440;-66
2022/09/25 05:36:51;;;;;;;;;;;;;;;52.65;7.28;101102.16;5092516;28;19924;-67
2022/09/25 05:39:17;;;;;;;;;;;;;;;52.61;7.57;101105.41;5095145;28;19924;-66
2022/09/25 05:41:43;;;;;;;;;;;;;;;52.46;7.21;101105.88;5096228;28;19916;-65
2022/09/25 05:44:10;;;;;;;;;;;;;;;52.41;7.53;101115.44;5096426;28;19920;-65
2022/09/25 05:46:36;;;;;;;;;;;;;;;52.33;7.79;101117.38;5096322;28;20294;-66
2022/09/25 05:49:03;;;;;;;;;;;;;;;52.14;7.95;101117.41;5096249;28;19931;-67
2022/09/25 05:51:29;;;;;;;;;;;;;;;52.12;8.38;101116.38;5094942;28;20323;-66
2022/09/25 05:53:56;;;;;;;;;;;;;;;52.16;8.09;101116.84;5096056;28;19927;-65
2022/09/25 05:56:23;;;;;;;;;;;;;;;52.12;8.49;101116.38;5095983;28;19999;-66
2022/09/25 05:58:51;;;;;;;;;;;;;;;52.15;8.70;101113.16;5096209;28;19920;-65
2022/09/25 06:01:17;;;;;;;;;;;;;;;52.24;8.36;101104.06;5096109;28;20407;-66
2022/09/25 06:03:44;;;;;;;;;;;;;;;52.12;7.96;101102.66;5095660;28;20348;-66
2022/09/25 06:06:11;;;;;;;;;;;;;;;51.85;8.29;101107.47;5095771;28;20298;-66
2022/09/25 06:08:38;;;;;;;;;;;;;;;51.72;8.46;101104.47;5095934;28;19931;-66
2022/09/25 06:11:04;;;;;;;;;;;;;;;51.72;8.95;101109.50;5095624;28;19916;-65
2022/09/25 06:13:33;;;;;;;;;;;;;;;51.64;8.72;101104.25;5094821;28;20300;-66
2022/09/25 06:16:00;;;;;;;;;;;;;;;51.57;8.76;101109.91;5095695;28;19916;-64
2022/09/25 06:18:26;;;;;;;;;;;;;;;51.62;8.80;101109.81;5095620;28;19950;-66
2022/09/25 06:20:58;;;;;;;;;;;;;;;51.52;9.10;101091.22;5095644;28;19920;-66
2022/09/25 06:23:25;;;;;;;;;;;;;;;51.54;8.45;101103.09;5095692;28;19920;-66
2022/09/25 06:25:51;;;;;;;;;;;;;;;51.49;8.68;101097.31;5094233;28;20294;-66
2022/09/25 06:28:17;;;;;;;;;;;;;;;51.51;8.34;101101.25;5095283;28;20227;-65
2022/09/25 06:30:44;;;;;;;;;;;;;;;51.54;8.85;101099.41;5094255;28;19916;-65
2022/09/25 06:33:11;;;;;;;;;;;;;;;51.39;9.38;101099.03;5095267;28;19951;-64
2022/09/25 06:35:42;;;;;;;;;;;;;;;51.35;8.90;101105.06;5095164;28;20405;-65
2022/09/25 06:38:08;;;;;;;;;;;;;;;51.34;9.10;101095.59;5095241;28;19920;-67
2022/09/25 06:40:36;;;;;;;;;;;;;;;51.25;8.68;101092.31;5094623;28;19916;-65
2022/09/25 06:43:04;;;;;;;;;;;;;;;51.18;9.03;101095.81;5095311;28;19924;-66
2022/09/25 06:45:32;;;;;;;;;;;;;;;51.10;8.54;101089.81;5095036;28;19920;-65
2022/09/25 06:48:05;;;;;;;;;;;;;;;51.01;8.27;101098.84;5095132;28;19920;-68
2022/09/25 06:50:35;;;;;;;;;;;;;;;50.88;8.43;101090.78;5094358;28;19930;-66
2022/09/25 06:53:01;;;;;;;;;;;;;;;50.85;8.61;101085.28;5095039;28;19939;-65
2022/09/25 06:55:28;;;;;;;;;;;;;;;50.83;8.88;101082.94;5095054;28;19928;-66
2022/09/25 06:57:54;;;;;;;;;;;;;;;50.74;8.81;101086.16;5094868;28;20014;-65
2022/09/25 07:00:21;;;;;;;;;;;;;;;50.72;8.19;101078.00;5094825;28;19920;-66
2022/09/25 07:05:32;;;;;;;;;;;;;;;50.65;8.70;101084.38;5094927;28;19920;-65
2022/09/25 07:07:58;;;;;;;;;;;;;;;50.63;8.25;101086.97;5094619;28;20271;-66
2022/09/25 07:10:25;;;;;;;;;;;;;;;50.66;8.32;101082.25;5094707;28;19920;-67
2022/09/25 07:12:51;;;;;;;;;;;;;;;50.57;8.52;101082.56;5094850;28;19955;-66
2022/09/25 07:15:18;;;;;;;;;;;;;;;50.54;8.20;101083.66;5093322;28;19924;-66
2022/09/25 07:17:44;;;;;;;;;;;;;;;50.54;8.04;101083.66;5094726;28;19919;-65
2022/09/25 07:20:14;;;;;;;;;;;;;;;50.47;8.67;101085.03;5094329;28;19967;-65
2022/09/25 07:22:41;;;;;;;;;;;;;;;50.47;8.79;101085.03;5094524;28;19920;-65
2022/09/25 07:25:08;;;;;;;;;;;;;;;50.55;8.67;101079.44;5094350;28;19924;-64
2022/09/25 07:27:34;;;;;;;;;;;;;;;50.39;8.68;101090.59;5094349;28;19916;-64
2022/09/25 07:30:02;;;;;;;;;;;;;;;50.34;8.63;101082.75;5094491;28;19920;-65
2022/09/25 07:32:28;;;;;;;;;;;;;;;50.30;8.14;101081.44;5094007;28;19923;-66
2022/09/25 07:34:54;;;;;;;;;;;;;;;49.90;8.36;101078.69;5094113;28;20452;-65
2022/09/25 07:37:20;;;;;;;;;;;;;;;49.77;8.58;101081.41;5094235;28;19916;-66
2022/09/25 07:39:47;;;;;;;;;;;;;;;49.95;7.96;101073.44;5094098;28;19928;-65
2022/09/25 07:42:13;;;;;;;;;;;;;;;50.06;7.79;101076.28;5094037;28;20014;-65
2022/09/25 07:44:39;;;;;;;;;;;;;;;50.13;8.28;101073.63;5094596;28;19920;-65
2022/09/25 07:47:07;;;;;;;;;;;;;;;49.42;8.33;101072.56;5093968;28;20010;-65
2022/09/25 07:49:34;;;;;;;;;;;;;;;49.78;8.06;101071.41;5094035;28;19920;-64
2022/09/25 07:52:01;;;;;;;;;;;;;;;49.37;8.21;101074.13;5092395;28;19955;-66
2022/09/25 07:54:27;;;;;;;;;;;;;;;49.84;8.56;101066.38;5094042;28;19920;-66
2022/09/25 07:56:53;;;;;;;;;;;;;;;50.01;8.31;101071.34;5093621;28;19916;-66
2022/09/25 07:59:20;;;;;;;;;;;;;;;50.04;8.16;101071.03;5093774;28;19920;-66
2022/09/25 08:01:46;;;;;;;;;;;;;;;49.94;8.35;101066.09;5093425;28;20007;-66
2022/09/25 08:04:12;;;;;;;;;;;;;;;49.78;8.42;101065.63;5093800;28;19965;-65
2022/09/25 08:06:38;;;;;;;;;;;;;;;49.27;8.57;101055.50;5094127;28;19923;-66
2022/09/25 08:09:05;;;;;;;;;;;;;;;49.85;8.22;101062.19;5092524;28;20011;-66
2022/09/25 08:11:32;;;;;;;;;;;;;;;49.90;8.11;101060.56;5093435;28;19916;-66
2022/09/25 08:13:59;;;;;;;;;;;;;;;49.52;7.86;101065.16;5093564;28;19955;-66
2022/09/25 08:16:25;;;;;;;;;;;;;;;49.65;8.46;101056.75;5093361;28;20205;-66
2022/09/25 08:18:51;;;;;;;;;;;;;;;49.36;7.98;101055.22;5093322;28;19920;-66
2022/09/25 08:21:19;;;;;;;;;;;;;;;49.34;8.10;101059.97;5093429;28;19923;-65
2022/09/25 08:23:50;;;;;;;;;;;;;;;49.38;8.09;101061.28;5093469;28;19972;-66
2022/09/25 08:26:16;;;;;;;;;;;;;;;49.50;7.45;101056.25;5093204;28;19963;-66
2022/09/25 08:28:43;;;;;;;;;;;;;;;49.29;8.05;101058.66;5093359;28;19923;-66
2022/09/25 08:31:09;;;;;;;;;;;;;;;48.19;8.69;101055.91;5093261;28;19920;-65
2022/09/25 08:33:36;;;;;;;;;;;;;;;48.44;8.78;101065.69;5092964;28;19951;-66
2022/09/25 08:36:04;;;;;;;;;;;;;;;49.27;8.05;101073.59;5091829;28;19920;-66
2022/09/25 08:38:33;;;;;;;;;;;;;;;48.62;8.54;101065.22;5093220;28;20294;-66
2022/09/25 08:41:02;;;;;;;;;;;;;;;48.85;8.71;101071.00;5093185;28;19920;-67
2022/09/25 08:43:29;;;;;;;;;;;;;;;48.75;8.54;101069.69;5093182;28;19927;-66
2022/09/25 08:49:01;;;;;;;;;;;;;;;47.99;9.94;101077.09;5093281;28;19927;-66
2022/09/25 08:51:29;;;;;;;;;;;;;;;47.62;10.51;101067.72;5093351;28;20430;-66
2022/09/25 08:53:55;;;;;;;;;;;;;;;47.43;10.22;101071.00;5093158;28;19919;-66
2022/09/25 08:56:24;;;;;;;;;;;;;;;47.88;10.46;101067.59;5092912;28;19927;-67
2022/09/25 08:59:03;;;;;;;;;;;;;;;47.24;10.59;101073.50;5093089;28;19923;-65
2022/09/25 09:01:41;;;;;;;;;;;;;;;47.69;10.51;101064.34;5092895;28;20011;-65
2022/09/25 09:04:27;;;;;;;;;;;;;;;47.88;10.35;101070.50;5092936;28;20404;-66
2022/09/25 09:06:57;;;;;;;;;;;;;;;47.62;10.66;101067.72;5092700;28;20400;-66
2022/09/25 09:09:34;;;;;;;;;;;;;;;48.32;10.24;101062.03;5092944;28;20434;-65
2022/09/25 09:12:07;;;;;;;;;;;;;;;47.99;9.82;101059.81;5093222;28;19962;-66
2022/09/25 09:14:37;;;;;;;;;;;;;;;47.94;9.92;101066.34;5097280;28;19920;-65
2022/09/25 09:17:17;;;;;;;;;;;;;;;48.94;9.82;101067.88;5096817;28;20390;-66
2022/09/25 09:19:55;;;;;;;;;;;;;;;48.69;9.73;101056.06;5096758;28;19920;-66
2022/09/25 09:22:29;;;;;;;;;;;;;;;49.18;8.56;101058.66;5096539;28;20436;-66
2022/09/25 09:25:13;;;;;;;;;;;;;;;49.40;9.39;101058.66;5096719;28;20031;-66
2022/09/25 09:28:06;;;;;;;;;;;;;;;49.19;9.24;101066.78;5096880;28;20279;-66
2022/09/25 09:30:44;;;;;;;;;;;;;;;49.26;9.27;101060.50;5097070;28;20019;-66
2022/09/25 09:33:10;;;;;;;;;;;;;;;49.11;9.10;101051.31;5096517;28;19967;-66
2022/09/25 09:35:37;;;;;;;;;;;;;;;48.76;9.21;101056.84;5096385;28;20334;-66
2022/09/25 09:38:06;;;;;;;;;;;;;;;49.00;9.32;101054.22;5095326;28;19923;-66
2022/09/25 09:40:35;;;;;;;;;;;;;;;49.05;9.77;101056.34;5096484;28;19916;-66
2022/09/25 09:43:20;;;;;;;;;;;;;;;48.98;9.20;101045.28;5096332;28;20003;-66
2022/09/25 09:45:54;;;;;;;;;;;;;;;49.39;8.91;101050.50;5096435;28;20019;-66
2022/09/25 09:48:36;;;;;;;;;;;;;;;48.72;9.38;101048.44;5096157;28;19928;-66
2022/09/25 09:51:06;;;;;;;;;;;;;;;48.83;10.06;101047.63;5096122;28;20294;-66
2022/09/25 09:53:45;;;;;;;;;;;;;;;48.51;10.07;101042.13;5096232;28;19995;-65
2022/09/25 09:56:13;;;;;;;;;;;;;;;48.64;9.40;101036.63;5096004;28;20378;-66
2022/09/25 09:58:39;;;;;;;;;;;;;;;48.39;10.03;101040.53;5096157;28;19916;-66
2022/09/25 10:01:06;;;;;;;;;;;;;;;49.03;9.35;101041.63;5096373;28;19920;-66
2022/09/25 10:03:36;;;;;;;;;;;;;;;49.10;9.15;101041.09;5095707;28;19923;-66
2022/09/25 10:06:05;;;;;;;;;;;;;;;49.32;9.02;101043.16;5095845;28;19920;-65
2022/09/25 10:08:31;;;;;;;;;;;;;;;49.49;9.27;101040.22;5095895;28;20327;-67
2022/09/25 10:10:58;;;;;;;;;;;;;;;49.55;9.22;101046.75;5095770;28;19927;-67
2022/09/25 10:13:32;;;;;;;;;;;;;;;49.67;9.28;101042.56;5095696;28;19923;-66
2022/09/25 10:16:18;;;;;;;;;;;;;;;49.64;9.05;101037.81;5095933;28;20015;-65
2022/09/25 10:19:07;;;;;;;;;;;;;;;49.54;9.21;101050.97;5095338;28;19928;-65
2022/09/25 10:21:37;;;;;;;;;;;;;;;49.32;9.65;101051.84;5087478;28;19965;-66
2022/09/25 10:24:03;;;;;;;;;;;;;;;49.16;8.82;101044.75;5094172;28;19947;-67
2022/09/25 10:26:35;;;;;;;;;;;;;;;49.04;9.73;101057.66;5095522;28;19920;-65
2022/09/25 10:29:03;;;;;;;;;;;;;;;48.92;9.60;101048.16;5095380;28;20334;-66
2022/09/25 10:31:31;;;;;;;;;;;;;;;48.67;9.52;101050.03;5095533;28;19955;-66
2022/09/25 10:34:00;;;;;;;;;;;;;;;48.86;9.80;101049.50;5092283;28;19963;-64
2022/09/25 10:36:46;;;;;;;;;;;;;;;49.01;9.89;101038.47;5095376;28;19939;-65
2022/09/25 10:39:28;;;;;;;;;;;;;;;48.76;9.55;101039.53;5095295;28;19920;-65
2022/09/25 10:41:55;;;;;;;;;;;;;;;48.40;10.30;101042.09;5095101;28;20363;-65
2022/09/25 10:44:22;;;;;;;;;;;;;;;48.84;9.72;101037.66;5095182;28;19946;-65
2022/09/25 10:52:28;;;;;;;;;;;;;;;48.53;10.01;101036.59;5095314;28;20437;-65
2022/09/25 10:55:15;;;;;;;;;;;;;;;48.79;9.74;101032.69;5094973;28;19916;-65
2022/09/25 10:57:43;;;;;;;;;;;;;;;48.77;10.14;101032.44;5073732;28;20401;-65
2022/09/25 11:00:20;;;;;;;;;;;;;;;48.60;9.70;101033.22;5094618;28;20378;-65
2022/09/25 11:02:52;;;;;;;;;;;;;;;48.61;10.18;101029.03;5094847;28;20010;-65
2022/09/25 11:05:37;;;;;;;;;;;;;;;48.84;9.80;101032.72;5094816;28;19971;-64
2022/09/25 11:08:04;;;;;;;;;;;;;;;48.77;9.60;101030.34;5094740;28;19920;-65
2022/09/25 11:10:35;;;;;;;;;;;;;;;48.84;9.67;101031.88;5093313;28;19924;-65
2022/09/25 11:13:07;;;;;;;;;;;;;;;48.76;9.84;101036.63;5094691;28;19978;-65
2022/09/25 11:15:35;;;;;;;;;;;;;;;48.77;9.88;101026.66;5093343;28;20260;-65
2022/09/25 11:18:02;;;;;;;;;;;;;;;48.96;9.99;101030.59;5094351;28;19916;-66
2022/09/25 11:20:30;;;;;;;;;;;;;;;48.66;9.78;101036.91;5094653;28;20286;-65
2022/09/25 11:23:01;;;;;;;;;;;;;;;48.88;10.10;101036.09;5094437;28;19920;-66
2022/09/25 11:25:45;;;;;;;;;;;;;;;49.06;9.92;101036.91;5094295;28;19916;-65
2022/09/25 11:28:24;;;;;;;;;;;;;;;48.96;10.29;101036.38;5094285;28;19928;-65
2022/09/25 11:30:56;;;;;;;;;;;;;;;48.63;9.99;101040.81;5094267;28;19920;-65
2022/09/25 11:33:25;;;;;;;;;;;;;;;48.46;10.39;101042.09;5094053;28;20397;-65
2022/09/25 11:36:02;;;;;;;;;;;;;;;47.99;10.78;101039.63;5093545;28;19916;-65
2022/09/25 11:41:45;;;;;;;;;;;;;;;48.07;10.74;101040.69;5094054;28;20383;-65
2022/09/25 11:44:26;;;;;;;;;;;;;;;48.43;10.59;101038.16;5088425;28;19928;-65
2022/09/25 11:46:52;;;;;;;;;;;;;;;48.25;10.51;101041.53;5094035;28;20012;-66
2022/09/25 11:49:23;;;;;;;;;;;;;;;48.16;10.46;101041.75;5094124;28;20014;-65
2022/09/25 11:52:01;;;;;;;;;;;;;;;48.09;10.38;101046.72;5093788;28;19927;-65
2022/09/25 11:54:42;;;;;;;;;;;;;;;47.60;10.87;101045.22;5093802;28;19920;-65
2022/09/25 11:57:20;;;;;;;;;;;;;;;48.23;10.56;101049.94;5092608;28;20294;-64
2022/09/25 11:59:56;;;;;;;;;;;;;;;48.45;10.38;101052.84;5093759;28;19920;-65
2022/09/25 12:02:32;;;;;;;;;;;;;;;48.56;10.22;101061.53;5093405;28;19927;-65
2022/09/25 12:05:13;;;;;;;;;;;;;;;48.60;10.00;101062.06;5093610;28;19923;-65
2022/09/25 12:07:42;;;;;;;;;;;;;;;48.48;9.91;101060.47;5093625;28;19924;-66
2022/09/25 12:10:23;;;;;;;;;;;;;;;48.45;10.27;101058.59;5093756;28;20307;-65
2022/09/25 12:12:58;;;;;;;;;;;;;;;48.44;10.48;101060.72;5093671;28;19920;-66
2022/09/25 12:15:34;;;;;;;;;;;;;;;48.49;10.45;101072.81;5093416;28;19920;-65
2022/09/25 12:18:09;;;;;;;;;;;;;;;48.25;10.30;101062.50;5093601;28;19974;-67
2022/09/25 12:20:51;;;;;;;;;;;;;;;48.28;10.35;101069.31;5093274;28;19927;-64
2022/09/25 12:23:26;;;;;;;;;;;;;;;48.32;10.39;101064.13;5093336;28;19920;-64
2022/09/25 12:26:02;;;;;;;;;;;;;;;48.24;10.49;101063.03;5093205;28;19924;-65
2022/09/25 12:28:40;;;;;;;;;;;;;;;47.79;10.67;101063.63;5093330;28;19927;-66
2022/09/25 12:31:13;;;;;;;;;;;;;;;47.59;10.96;101060.91;5093162;28;19926;-65
2022/09/25 12:33:39;;;;;;;;;;;;;;;47.18;11.15;101066.91;5093026;28;19916;-65
2022/09/25 12:36:13;;;;;;;;;;;;;;;47.58;10.56;101067.16;5092919;28;20011;-65
2022/09/25 12:39:12;;;;;;;;;;;;;;;47.96;10.33;101077.34;5093494;28;20049;-66
2022/09/25 12:41:57;;;;;;;;;;;;;;;48.19;10.14;101081.09;5069955;28;19959;-65
2022/09/25 12:44:28;;;;;;;;;;;;;;;48.14;10.51;101085.53;5092937;28;19920;-65
2022/09/25 12:47:00;;;;;;;;;;;;;;;48.17;10.71;101092.34;5092275;28;19924;-65
2022/09/25 12:49:39;;;;;;;;;;;;;;;48.11;10.26;101081.56;5093189;28;19927;-65
2022/09/25 12:52:11;;;;;;;;;;;;;;;48.04;10.28;101079.19;5091572;28;20432;-65
2022/09/25 12:55:12;;;;;;;;;;;;;;;48.09;10.20;101087.06;5072915;28;19924;-65
2022/09/25 12:57:47;;;;;;;;;;;;;;;48.04;10.23;101084.97;5029717;28;19930;-65
2022/09/25 13:00:20;;;;;;;;;;;;;;;48.00;10.37;101083.66;5072636;28;19973;-66
2022/09/25 13:02:59;;;;;;;;;;;;;;;48.01;10.37;101088.09;5082306;28;19927;-66
2022/09/25 13:05:39;;;;;;;;;;;;;;;47.77;10.85;101082.75;5092962;28;19931;-65
2022/09/25 13:08:17;;;;;;;;;;;;;;;47.64;11.15;101085.28;5091772;28;19920;-66
2022/09/25 13:10:49;;;;;;;;;;;;;;;47.67;11.10;101087.13;5092927;28;19920;-66
2022/09/25 13:13:18;;;;;;;;;;;;;;;47.74;10.84;101098.16;5092852;28;19916;-67
2022/09/25 13:15:51;;;;;;;;;;;;;;;47.76;10.91;101098.44;5092272;28;19916;-66
2022/09/25 13:18:19;;;;;;;;;;;;;;;47.79;10.80;101098.22;5092497;28;20011;-66
2022/09/25 13:20:56;;;;;;;;;;;;;;;47.73;10.86;101102.34;5092745;28;19920;-66